createdAt,value
2022-10-22T00:00:08.258Z,71.40
2022-10-22T00:02:36.003Z,71.27
2022-10-22T00:05:03.573Z,71.46
2022-10-22T00:07:31.005Z,71.12
2022-10-22T00:09:58.374Z,71.10
2022-10-22T00:12:25.614Z,71.20
2022-10-22T00:14:52.691Z,71.56
2022-10-22T00:17:19.973Z,72.17
2022-10-22T00:19:47.023Z,71.74
2022-10-22T00:22:14.448Z,71.67
2022-10-22T00:24:41.889Z,71.64
2022-10-22T00:27:11.195Z,71.72
2022-10-22T00:29:38.378Z,71.45
2022-10-22T00:32:06.348Z,71.69
2022-10-22T00:34:33.948Z,71.43
2022-10-22T00:37:01.088Z,71.65
2022-10-22T00:39:28.709Z,72.81
2022-10-22T00:41:57.469Z,73.12
2022-10-22T00:45:01.908Z,73.46
2022-10-22T00:47:37.528Z,73.90
2022-10-22T00:50:07.767Z,74.02
2022-10-22T00:52:35.864Z,73.52
2022-10-22T00:55:03.223Z,72.98
2022-10-22T00:57:30.335Z,73.39
2022-10-22T00:59:58.139Z,72.31
2022-10-22T01:02:25.366Z,71.52
2022-10-22T01:04:52.693Z,71.56
2022-10-22T01:07:24.104Z,71.30
2022-10-22T01:09:51.115Z,71.17
2022-10-22T01:12:20.889Z,70.55
2022-10-22T01:15:01.149Z,70.57
2022-10-22T01:17:34.388Z,70.63
2022-10-22T01:20:10.399Z,70.78
2022-10-22T01:23:00.108Z,70.94
2022-10-22T01:25:35.977Z,70.89
2022-10-22T01:28:43.232Z,71.99
2022-10-22T01:31:13.928Z,71.07
2022-10-22T01:33:42.296Z,71.55
2022-10-22T01:36:10.384Z,71.69
2022-10-22T01:38:39.034Z,72.09
2022-10-22T01:41:07.320Z,72.37
2022-10-22T01:43:34.345Z,71.89
2022-10-22T01:46:04.642Z,71.58
2022-10-22T01:48:52.979Z,71.03
2022-10-22T01:51:35.020Z,71.04
2022-10-22T01:54:07.838Z,71.13
2022-10-22T01:57:19.647Z,70.94
2022-10-22T02:00:04.960Z,71.38
2022-10-22T02:05:50.851Z,71.44
2022-10-22T02:08:24.188Z,71.00
2022-10-22T02:10:52.545Z,71.12
2022-10-22T02:13:34.190Z,71.13
2022-10-22T02:16:03.444Z,70.91
2022-10-22T02:18:36.462Z,71.41
2022-10-22T02:23:39.503Z,71.12
2022-10-22T02:26:29.816Z,72.02
2022-10-22T02:28:59.713Z,72.93
2022-10-22T02:31:31.691Z,72.84
2022-10-22T02:34:05.306Z,72.28
2022-10-22T02:36:32.847Z,71.82
2022-10-22T02:39:00.937Z,72.01
2022-10-22T02:41:28.210Z,72.30
2022-10-22T02:43:55.909Z,71.81
2022-10-22T02:46:24.483Z,73.07
2022-10-22T02:48:51.557Z,72.86
2022-10-22T02:51:18.595Z,72.76
2022-10-22T02:53:45.632Z,72.96
2022-10-22T02:56:12.738Z,72.81
2022-10-22T02:58:39.837Z,72.95
2022-10-22T03:01:06.972Z,72.34
2022-10-22T03:03:34.063Z,72.65
2022-10-22T03:06:01.183Z,72.42
2022-10-22T03:08:29.394Z,72.46
2022-10-22T03:10:56.423Z,72.28
2022-10-22T03:13:23.459Z,72.46
2022-10-22T03:15:51.686Z,72.29
2022-10-22T03:18:18.833Z,72.38
2022-10-22T03:20:45.998Z,72.54
2022-10-22T03:23:18.493Z,72.34
2022-10-22T03:25:48.418Z,72.46
2022-10-22T03:28:17.342Z,72.96
2022-10-22T03:30:44.468Z,72.76
2022-10-22T03:33:11.495Z,73.01
2022-10-22T03:35:44.675Z,73.06
2022-10-22T03:38:12.501Z,73.02
2022-10-22T03:40:40.480Z,73.20
2022-10-22T03:43:07.676Z,73.21
2022-10-22T03:45:34.758Z,73.06
2022-10-22T03:48:01.868Z,72.86
2022-10-22T03:50:29.066Z,73.32
2022-10-22T03:52:58.170Z,73.39
2022-10-22T03:55:25.382Z,73.79
2022-10-22T03:57:52.397Z,73.30
2022-10-22T04:00:19.532Z,73.33
2022-10-22T04:02:46.661Z,73.38
2022-10-22T04:07:40.943Z,73.42
2022-10-22T04:10:08.581Z,73.47
2022-10-22T04:12:35.616Z,73.48
2022-10-22T04:15:02.667Z,73.39
2022-10-22T04:17:36.911Z,73.26
2022-10-22T04:20:05.152Z,72.91
2022-10-22T04:22:36.409Z,73.04
2022-10-22T04:25:05.205Z,73.14
2022-10-22T04:27:33.105Z,73.14
2022-10-22T04:30:00.219Z,73.34
2022-10-22T04:32:28.351Z,73.63
2022-10-22T04:34:55.370Z,73.42
2022-10-22T04:37:22.388Z,73.71
2022-10-22T04:39:49.408Z,73.58
2022-10-22T04:42:16.444Z,73.70
2022-10-22T04:44:43.556Z,73.59
2022-10-22T04:47:10.608Z,73.76
2022-10-22T04:49:37.649Z,73.72
2022-10-22T04:52:04.790Z,73.38
2022-10-22T04:54:33.103Z,73.42
2022-10-22T04:57:00.437Z,73.11
2022-10-22T04:59:27.529Z,73.36
2022-10-22T05:01:54.560Z,73.43
2022-10-22T05:04:21.676Z,73.42
2022-10-22T05:06:48.788Z,73.35
2022-10-22T05:09:20.663Z,73.57
2022-10-22T05:11:50.699Z,73.40
2022-10-22T05:14:23.388Z,73.36
2022-10-22T05:16:51.378Z,73.20
2022-10-22T05:19:30.207Z,73.26
2022-10-22T05:21:59.266Z,73.64
2022-10-22T05:24:27.933Z,72.59
2022-10-22T05:26:57.247Z,72.61
2022-10-22T05:29:25.230Z,72.76
2022-10-22T05:31:53.386Z,72.44
2022-10-22T05:34:20.487Z,72.41
2022-10-22T05:36:47.525Z,72.16
2022-10-22T05:39:14.632Z,71.97
2022-10-22T05:41:41.823Z,72.48
2022-10-22T05:44:12.095Z,71.92
2022-10-22T05:46:39.299Z,72.19
2022-10-22T05:49:07.172Z,72.31
2022-10-22T05:51:36.848Z,72.74
2022-10-22T05:54:06.392Z,72.59
2022-10-22T05:56:34.399Z,72.00
2022-10-22T06:01:37.567Z,72.24
2022-10-22T06:04:07.243Z,71.72
2022-10-22T06:06:40.893Z,71.72
2022-10-22T06:09:20.165Z,71.44
2022-10-22T06:11:48.236Z,71.79
2022-10-22T06:14:15.666Z,71.30
2022-10-22T06:16:43.435Z,72.18
2022-10-22T06:19:13.375Z,71.22
2022-10-22T06:21:40.430Z,70.83
2022-10-22T06:24:09.299Z,70.26
2022-10-22T06:26:36.727Z,70.80
2022-10-22T06:29:04.841Z,71.92
2022-10-22T06:31:37.063Z,71.94
2022-10-22T06:34:05.921Z,70.51
2022-10-22T06:36:33.104Z,70.89
2022-10-22T06:39:00.286Z,72.30
2022-10-22T06:41:29.585Z,72.77
2022-10-22T06:43:58.149Z,71.76
2022-10-22T06:46:26.507Z,71.55
2022-10-22T06:48:56.444Z,71.89
2022-10-22T06:51:23.702Z,71.81
2022-10-22T06:53:50.791Z,72.09
2022-10-22T06:56:20.744Z,71.10
2022-10-22T06:58:49.285Z,69.08
2022-10-22T07:01:18.249Z,69.19
2022-10-22T07:03:45.477Z,68.42
2022-10-22T07:06:14.444Z,69.41
2022-10-22T07:08:42.493Z,68.24
2022-10-22T07:11:18.234Z,68.41
2022-10-22T07:13:46.056Z,68.27
2022-10-22T07:16:13.841Z,68.98
2022-10-22T07:18:41.869Z,68.94
2022-10-22T07:21:11.154Z,69.04
2022-10-22T07:23:38.509Z,69.18
2022-10-22T07:26:07.590Z,68.51
2022-10-22T07:28:36.625Z,68.63
2022-10-22T07:31:04.127Z,68.28
2022-10-22T07:33:31.313Z,68.27
2022-10-22T07:36:00.006Z,68.97
2022-10-22T07:38:27.856Z,68.93
2022-10-22T07:40:55.248Z,68.64
2022-10-22T07:43:22.423Z,68.69
2022-10-22T07:45:49.893Z,68.71
2022-10-22T07:48:17.294Z,68.45
2022-10-22T07:53:16.677Z,69.16
2022-10-22T07:55:43.834Z,68.38
2022-10-22T07:58:10.885Z,68.17
2022-10-22T08:00:37.924Z,68.70
2022-10-22T08:03:04.976Z,68.85
2022-10-22T08:05:32.139Z,67.86
2022-10-22T08:07:59.160Z,66.44
2022-10-22T08:10:26.209Z,66.67
2022-10-22T08:12:53.261Z,66.58
2022-10-22T08:15:22.389Z,66.32
2022-10-22T08:17:49.455Z,65.54
2022-10-22T08:20:16.656Z,66.05
2022-10-22T08:22:43.740Z,65.91
2022-10-22T08:25:11.195Z,65.90
2022-10-22T08:27:39.241Z,66.69
2022-10-22T08:30:07.872Z,65.90
2022-10-22T08:32:34.931Z,64.69
2022-10-22T08:35:02.008Z,66.36
2022-10-22T08:37:31.064Z,64.05
2022-10-22T08:39:58.200Z,65.54
2022-10-22T08:42:43.199Z,64.82
2022-10-22T08:45:13.265Z,64.28
2022-10-22T08:48:15.530Z,64.18
2022-10-22T08:50:46.918Z,64.58
2022-10-22T08:53:18.405Z,64.35
2022-10-22T08:55:46.045Z,64.82
2022-10-22T08:58:31.862Z,64.79
2022-10-22T09:01:19.271Z,63.53
2022-10-22T09:04:05.334Z,64.48
2022-10-22T09:06:35.406Z,62.85
2022-10-22T09:09:11.210Z,62.84
2022-10-22T09:11:43.451Z,62.81
2022-10-22T09:17:12.798Z,62.66
2022-10-22T09:19:54.611Z,63.58
2022-10-22T09:22:27.664Z,62.48
2022-10-22T09:24:59.737Z,62.55
2022-10-22T09:27:30.237Z,63.07
2022-10-22T09:29:57.864Z,62.75
2022-10-22T09:32:25.871Z,64.02
2022-10-22T09:34:57.302Z,64.11
2022-10-22T09:37:30.019Z,64.02
2022-10-22T09:39:59.074Z,64.30
2022-10-22T09:42:26.414Z,64.45
2022-10-22T09:44:55.887Z,64.75
2022-10-22T09:47:43.519Z,64.92
2022-10-22T09:50:57.820Z,63.98
2022-10-22T09:53:36.484Z,64.87
2022-10-22T09:56:09.867Z,63.96
2022-10-22T09:58:51.181Z,64.93
2022-10-22T10:01:23.744Z,63.58
2022-10-22T10:03:50.800Z,62.66
2022-10-22T10:06:20.367Z,64.21
2022-10-22T10:08:48.587Z,63.82
2022-10-22T10:11:29.679Z,63.56
2022-10-22T10:14:01.588Z,63.06
2022-10-22T10:16:59.284Z,62.83
2022-10-22T10:20:01.391Z,61.97
2022-10-22T10:22:44.776Z,63.09
2022-10-22T10:25:37.379Z,62.25
2022-10-22T10:28:26.316Z,62.26
2022-10-22T10:31:05.482Z,62.21
2022-10-22T10:33:47.756Z,62.52
2022-10-22T10:36:56.197Z,63.08
2022-10-22T10:39:44.328Z,63.11
2022-10-22T10:42:48.191Z,63.64
2022-10-22T10:45:45.018Z,63.79
2022-10-22T10:48:36.959Z,65.11
2022-10-22T10:51:31.672Z,64.22
2022-10-22T10:54:28.884Z,63.51
2022-10-22T10:57:02.370Z,63.02
2022-10-22T10:59:57.234Z,62.71
2022-10-22T11:03:01.414Z,61.33
2022-10-22T11:05:34.470Z,63.07
2022-10-22T11:08:25.547Z,63.29
2022-10-22T11:11:04.244Z,64.44
2022-10-22T11:14:00.370Z,63.70
2022-10-22T11:16:38.185Z,63.43
2022-10-22T11:19:46.201Z,64.02
2022-10-22T11:22:28.490Z,62.95
2022-10-22T11:25:14.027Z,63.88
2022-10-22T11:27:53.318Z,64.32
2022-10-22T11:30:28.793Z,63.28
2022-10-22T11:33:02.156Z,63.46
2022-10-22T11:35:34.306Z,64.13
2022-10-22T11:38:05.050Z,64.80
2022-10-22T11:40:37.089Z,64.50
2022-10-22T11:43:26.175Z,64.76
2022-10-22T11:46:02.132Z,64.53
2022-10-22T11:48:36.712Z,65.07
2022-10-22T11:51:24.391Z,64.84
2022-10-22T11:53:56.483Z,64.78
2022-10-22T11:56:26.624Z,63.36
2022-10-22T11:58:55.609Z,63.99
2022-10-22T12:01:26.099Z,64.28
2022-10-22T12:04:17.693Z,64.06
2022-10-22T12:06:59.515Z,64.00
2022-10-22T12:09:30.386Z,63.71
2022-10-22T12:12:21.073Z,63.80
2022-10-22T12:14:53.992Z,63.53
2022-10-22T12:17:23.300Z,63.55
2022-10-22T12:20:01.990Z,63.52
2022-10-22T12:22:34.044Z,62.71
2022-10-22T12:25:06.250Z,62.96
2022-10-22T12:27:39.578Z,63.51
2022-10-22T12:30:22.357Z,62.86
2022-10-22T12:32:56.343Z,62.80
2022-10-22T12:35:29.781Z,62.30
2022-10-22T12:38:00.889Z,62.45
2022-10-22T12:40:30.745Z,62.53
2022-10-22T12:43:00.861Z,62.33
2022-10-22T12:45:31.472Z,63.23
2022-10-22T12:48:01.969Z,62.34
2022-10-22T12:51:09.729Z,63.25
2022-10-22T12:53:43.394Z,62.57
2022-10-22T12:56:16.060Z,62.54
2022-10-22T12:58:47.255Z,63.78
2022-10-22T13:01:16.906Z,63.55
2022-10-22T13:03:47.488Z,64.04
2022-10-22T13:06:20.485Z,63.43
2022-10-22T13:08:59.957Z,62.90
2022-10-22T13:12:04.880Z,62.72
2022-10-22T13:14:34.670Z,62.11
2022-10-22T13:17:08.021Z,63.35
2022-10-22T13:19:39.819Z,63.20
2022-10-22T13:22:28.732Z,63.66
2022-10-22T13:27:26.432Z,61.94
2022-10-22T13:29:54.584Z,63.11
2022-10-22T13:32:31.197Z,63.74
2022-10-22T13:35:02.844Z,63.50
2022-10-22T13:37:34.090Z,63.93
2022-10-22T13:40:01.335Z,65.59
2022-10-22T13:42:28.510Z,65.75
2022-10-22T13:44:55.640Z,66.17
2022-10-22T13:47:30.147Z,66.00
2022-10-22T13:50:00.455Z,64.96
2022-10-22T13:52:36.593Z,65.20
2022-10-22T13:55:13.891Z,65.88
2022-10-22T13:57:41.236Z,65.33
2022-10-22T14:00:12.180Z,65.79
2022-10-22T14:02:40.666Z,66.03
2022-10-22T14:05:09.724Z,66.17
2022-10-22T14:07:39.321Z,66.35
2022-10-22T14:10:18.015Z,66.30
2022-10-22T14:12:48.233Z,66.18
2022-10-22T14:15:18.489Z,66.76
2022-10-22T14:18:06.293Z,66.61
2022-10-22T14:20:36.848Z,68.50
2022-10-22T14:23:19.960Z,68.15
2022-10-22T14:25:48.010Z,70.02
2022-10-22T14:28:15.132Z,70.33
2022-10-22T14:30:42.268Z,69.38
2022-10-22T14:33:18.806Z,68.34
2022-10-22T14:35:46.156Z,68.16
2022-10-22T14:38:13.212Z,68.98
2022-10-22T14:40:43.032Z,69.65
2022-10-22T14:43:18.525Z,70.10
2022-10-22T14:45:45.565Z,70.33
2022-10-22T14:48:12.677Z,69.79
2022-10-22T14:50:39.924Z,69.24
2022-10-22T14:53:06.964Z,69.10
2022-10-22T14:55:34.011Z,69.20
2022-10-22T14:58:01.325Z,69.08
2022-10-22T15:00:28.414Z,68.72
2022-10-22T15:02:58.096Z,70.00
2022-10-22T15:05:28.221Z,69.00
2022-10-22T15:07:55.408Z,70.92
2022-10-22T15:10:22.465Z,71.92
2022-10-22T15:12:49.565Z,70.75
2022-10-22T15:15:18.209Z,70.79
2022-10-22T15:17:47.559Z,71.79
2022-10-22T15:20:14.611Z,71.36
2022-10-22T15:22:41.892Z,71.54
2022-10-22T15:25:09.508Z,70.55
2022-10-22T15:27:36.886Z,69.73
2022-10-22T15:30:05.500Z,69.55
2022-10-22T15:32:34.126Z,69.58
2022-10-22T15:35:01.734Z,71.44
2022-10-22T15:37:30.906Z,71.13
2022-10-22T15:39:58.398Z,69.74
2022-10-22T15:42:25.495Z,70.48
2022-10-22T15:44:59.352Z,69.72
2022-10-22T15:47:29.584Z,68.74
2022-10-22T15:49:56.896Z,69.08
2022-10-22T15:52:23.951Z,67.97
2022-10-22T15:54:50.973Z,69.07
2022-10-22T15:57:18.005Z,68.33
2022-10-22T15:59:45.076Z,68.58
2022-10-22T16:02:12.877Z,68.57
2022-10-22T16:04:39.931Z,68.72
2022-10-22T16:07:08.302Z,68.82
2022-10-22T16:09:35.996Z,68.59
2022-10-22T16:12:03.116Z,68.20
2022-10-22T16:14:30.264Z,68.18
2022-10-22T16:16:57.602Z,67.92
2022-10-22T16:19:26.291Z,67.90
2022-10-22T16:21:55.580Z,67.98
2022-10-22T16:24:23.487Z,68.01
2022-10-22T16:26:53.281Z,67.57
2022-10-22T16:29:20.407Z,67.43
2022-10-22T16:31:47.545Z,68.20
2022-10-22T16:34:16.081Z,67.90
2022-10-22T16:36:44.437Z,67.34
2022-10-22T16:39:11.728Z,67.53
2022-10-22T16:41:38.838Z,67.40
2022-10-22T16:44:07.949Z,68.82
2022-10-22T16:46:38.598Z,68.97
2022-10-22T16:49:06.249Z,68.95
2022-10-22T16:51:34.236Z,68.52
2022-10-22T16:54:01.348Z,67.86
2022-10-22T16:56:28.669Z,68.22
2022-10-22T16:58:57.474Z,67.98
2022-10-22T17:01:26.655Z,67.79
2022-10-22T17:03:56.897Z,67.79
2022-10-22T17:06:25.496Z,67.71
2022-10-22T17:08:52.753Z,67.30
2022-10-22T17:11:22.210Z,68.49
2022-10-22T17:13:53.267Z,67.98
2022-10-22T17:16:22.913Z,67.40
2022-10-22T17:18:52.915Z,67.52
2022-10-22T17:21:20.629Z,67.73
2022-10-22T17:23:48.047Z,68.00
2022-10-22T17:26:21.691Z,68.32
2022-10-22T17:28:51.010Z,67.39
2022-10-22T17:31:19.850Z,67.54
2022-10-22T17:33:48.720Z,68.77
2022-10-22T17:36:17.778Z,68.75
2022-10-22T17:38:49.105Z,68.82
2022-10-22T17:41:19.657Z,67.78
2022-10-22T17:43:47.571Z,68.28
2022-10-22T17:46:20.240Z,67.28
2022-10-22T17:48:54.801Z,68.55
2022-10-22T17:51:22.890Z,67.69
2022-10-22T17:53:53.301Z,69.03
2022-10-22T17:56:28.041Z,68.86
2022-10-22T17:58:56.244Z,68.44
2022-10-22T18:01:26.172Z,68.26
2022-10-22T18:03:55.234Z,68.97
2022-10-22T18:06:23.139Z,69.55
2022-10-22T18:08:50.433Z,69.37
2022-10-22T18:11:20.303Z,69.25
2022-10-22T18:13:51.750Z,69.75
2022-10-22T18:16:19.968Z,69.76
2022-10-22T18:18:48.791Z,69.13
2022-10-22T18:21:17.047Z,70.66
2022-10-22T18:23:44.685Z,71.52
2022-10-22T18:26:12.132Z,70.83
2022-10-22T18:28:39.179Z,70.81
2022-10-22T18:31:10.099Z,69.69
2022-10-22T18:33:38.097Z,69.92
2022-10-22T18:36:08.479Z,70.32
2022-10-22T18:38:38.193Z,69.83
2022-10-22T18:41:07.054Z,68.86
2022-10-22T18:43:35.310Z,69.05
2022-10-22T18:46:02.417Z,68.67
2022-10-22T18:48:29.471Z,69.02
2022-10-22T18:51:01.643Z,70.60
2022-10-22T18:53:29.852Z,70.74
2022-10-22T18:55:57.370Z,70.82
2022-10-22T18:58:24.546Z,71.36
2022-10-22T19:00:51.889Z,69.76
2022-10-22T19:03:19.671Z,71.09
2022-10-22T19:05:52.406Z,70.46
2022-10-22T19:08:19.786Z,69.86
2022-10-22T19:10:48.170Z,70.25
2022-10-22T19:13:18.177Z,70.86
2022-10-22T19:15:45.241Z,72.02
2022-10-22T19:18:15.239Z,73.46
2022-10-22T19:20:44.474Z,72.61
2022-10-22T19:23:11.891Z,71.72
2022-10-22T19:25:39.333Z,71.38
2022-10-22T19:28:06.571Z,71.94
2022-10-22T19:30:35.968Z,71.20
2022-10-22T19:33:03.139Z,71.51
2022-10-22T19:35:30.187Z,70.66
2022-10-22T19:37:57.264Z,70.83
2022-10-22T19:40:25.890Z,71.24
2022-10-22T19:42:53.272Z,70.86
2022-10-22T19:45:20.376Z,70.33
2022-10-22T19:47:47.457Z,70.21
2022-10-22T19:50:14.513Z,70.73
2022-10-22T19:52:42.136Z,70.96
2022-10-22T19:55:10.710Z,71.20
2022-10-22T19:57:39.538Z,71.38
2022-10-22T20:00:07.693Z,70.85
2022-10-22T20:02:37.224Z,70.78
2022-10-22T20:05:05.095Z,70.78
2022-10-22T20:07:32.472Z,70.34
2022-10-22T20:09:59.618Z,70.06
2022-10-22T20:12:26.696Z,70.20
2022-10-22T20:14:53.989Z,70.70
2022-10-22T20:17:21.027Z,71.07
2022-10-22T20:19:48.101Z,70.33
2022-10-22T20:22:17.910Z,70.41
2022-10-22T20:24:45.921Z,71.15
2022-10-22T20:27:13.598Z,71.10
2022-10-22T20:29:40.706Z,70.47
2022-10-22T20:32:08.912Z,69.81
2022-10-22T20:34:37.205Z,69.84
2022-10-22T20:37:04.266Z,70.15
2022-10-22T20:39:31.314Z,69.91
2022-10-22T20:41:58.384Z,69.47
2022-10-22T20:44:25.430Z,70.19
2022-10-22T20:46:52.685Z,71.08
2022-10-22T20:49:20.891Z,70.85
2022-10-22T20:51:48.645Z,70.47
2022-10-22T20:54:16.219Z,69.78
2022-10-22T20:56:43.707Z,70.55
2022-10-22T20:59:12.244Z,70.57
2022-10-22T21:01:40.557Z,70.22
2022-10-22T21:04:08.403Z,70.81
2022-10-22T21:06:38.245Z,70.68
2022-10-22T21:09:06.893Z,70.18
2022-10-22T21:11:34.952Z,71.59
2022-10-22T21:14:02.460Z,72.32
2022-10-22T21:16:30.319Z,72.70
2022-10-22T21:18:57.798Z,73.07
2022-10-22T21:21:25.059Z,72.60
2022-10-22T21:23:52.316Z,72.38
2022-10-22T21:26:20.559Z,71.79
2022-10-22T21:28:47.994Z,71.46
2022-10-22T21:31:21.996Z,71.47
2022-10-22T21:33:50.103Z,71.92
2022-10-22T21:36:21.600Z,71.53
2022-10-22T21:38:51.473Z,71.75
2022-10-22T21:41:20.873Z,71.50
2022-10-22T21:43:48.066Z,71.88
2022-10-22T21:46:23.797Z,71.71
2022-10-22T21:49:01.511Z,71.70
2022-10-22T21:51:31.265Z,71.67
2022-10-22T21:53:58.636Z,71.19
2022-10-22T21:56:28.403Z,71.96
2022-10-22T21:58:56.045Z,72.11
2022-10-22T22:01:23.870Z,72.79
2022-10-22T22:03:52.516Z,72.28
2022-10-22T22:06:22.668Z,72.78
2022-10-22T22:08:52.410Z,72.08
2022-10-22T22:11:25.336Z,71.62
2022-10-22T22:13:56.192Z,71.84
2022-10-22T22:16:28.199Z,71.63
2022-10-22T22:19:00.957Z,71.26
2022-10-22T22:21:29.594Z,71.45
2022-10-22T22:23:57.367Z,71.16
2022-10-22T22:26:29.550Z,71.17
2022-10-22T22:28:59.339Z,71.34
2022-10-22T22:31:29.659Z,71.40
2022-10-22T22:34:04.581Z,71.65
2022-10-22T22:36:40.662Z,71.69
2022-10-22T22:39:10.888Z,71.08
2022-10-22T22:41:37.972Z,71.13
2022-10-22T22:44:05.220Z,70.44
2022-10-22T22:46:32.681Z,70.45
2022-10-22T22:48:59.739Z,70.87
2022-10-22T22:51:27.072Z,71.19
2022-10-22T22:53:54.321Z,71.29
2022-10-22T22:56:24.361Z,70.41
2022-10-22T22:58:51.540Z,70.90
2022-10-22T23:01:24.838Z,70.74
2022-10-22T23:04:00.686Z,70.55
2022-10-22T23:06:34.098Z,71.11
2022-10-22T23:09:01.506Z,71.19
2022-10-22T23:11:29.104Z,70.69
2022-10-22T23:13:59.092Z,70.98
2022-10-22T23:16:29.326Z,70.51
2022-10-22T23:18:57.479Z,71.52
2022-10-22T23:21:36.061Z,70.87
2022-10-22T23:24:07.325Z,72.08
2022-10-22T23:26:38.516Z,71.45
2022-10-22T23:29:14.776Z,71.46
2022-10-22T23:31:43.177Z,70.91
2022-10-22T23:34:12.501Z,71.31
2022-10-22T23:36:39.931Z,73.28
2022-10-22T23:39:09.887Z,72.79
2022-10-22T23:41:37.117Z,71.50
2022-10-22T23:44:04.770Z,71.75
2022-10-22T23:46:32.776Z,70.95
2022-10-22T23:49:00.872Z,70.56
2022-10-22T23:51:28.359Z,70.05
2022-10-22T23:53:58.297Z,70.28
2022-10-22T23:56:25.941Z,71.29
2022-10-22T23:58:54.147Z,70.86
